createdAt,value
2022-10-10T00:00:51.681Z,98724.75
2022-10-10T00:01:53.425Z,98724.75
2022-10-10T00:02:55.137Z,98725.00
2022-10-10T00:03:56.908Z,98724.19
2022-10-10T00:04:58.653Z,98727.28
2022-10-10T00:06:00.432Z,98729.72
2022-10-10T00:07:02.291Z,98726.25
2022-10-10T00:08:05.533Z,98723.59
2022-10-10T00:09:07.338Z,98731.56
2022-10-10T00:10:09.368Z,98724.63
2022-10-10T00:11:13.537Z,98727.66
2022-10-10T00:12:15.291Z,98728.09
2022-10-10T00:13:17.022Z,98720.94
2022-10-10T00:14:18.816Z,98726.25
2022-10-10T00:15:20.660Z,98720.94
2022-10-10T00:16:22.746Z,98723.59
2022-10-10T00:17:24.494Z,98725.44
2022-10-10T00:18:26.208Z,98728.09
2022-10-10T00:19:27.955Z,98722.16
2022-10-10T00:20:29.963Z,98720.31
2022-10-10T00:21:31.696Z,98718.47
2022-10-10T00:22:33.378Z,98723.78
2022-10-10T00:23:35.581Z,98720.31
2022-10-10T00:24:37.644Z,98719.50
2022-10-10T00:25:39.400Z,98721.13
2022-10-10T00:26:41.165Z,98722.97
2022-10-10T00:27:42.878Z,98721.34
2022-10-10T00:28:44.646Z,98720.31
2022-10-10T00:29:46.430Z,98711.75
2022-10-10T00:30:48.160Z,98717.88
2022-10-10T00:31:49.898Z,98726.84
2022-10-10T00:32:51.974Z,98730.75
2022-10-10T00:33:54.030Z,98723.00
2022-10-10T00:34:55.763Z,98721.97
2022-10-10T00:35:57.529Z,98723.00
2022-10-10T00:36:59.243Z,98723.00
2022-10-10T00:38:01.017Z,98717.13
2022-10-10T00:39:02.744Z,98724.06
2022-10-10T00:40:06.191Z,98720.59
2022-10-10T00:41:08.352Z,98718.34
2022-10-10T00:42:16.104Z,98722.19
2022-10-10T00:43:18.962Z,98718.97
2022-10-10T00:44:20.686Z,98717.53
2022-10-10T00:45:32.751Z,98718.16
2022-10-10T00:46:35.524Z,98712.22
2022-10-10T00:47:37.316Z,98713.03
2022-10-10T00:48:44.372Z,98718.56
2022-10-10T00:49:46.109Z,98715.09
2022-10-10T00:51:12.771Z,98709.56
2022-10-10T00:52:14.511Z,98719.00
2022-10-10T00:53:21.678Z,98710.81
2022-10-10T00:54:26.063Z,98712.66
2022-10-10T00:55:28.268Z,98715.31
2022-10-10T00:56:44.185Z,98713.47
2022-10-10T00:57:46.288Z,98712.88
2022-10-10T00:58:54.147Z,98709.19
2022-10-10T00:59:57.449Z,98717.16
2022-10-10T01:00:59.323Z,98709.63
2022-10-10T01:02:01.135Z,98712.88
2022-10-10T01:03:03.006Z,98712.06
2022-10-10T01:04:05.588Z,98712.06
2022-10-10T01:05:07.903Z,98707.78
2022-10-10T01:06:10.417Z,98710.44
2022-10-10T01:07:28.191Z,98711.03
2022-10-10T01:08:30.022Z,98707.34
2022-10-10T01:09:34.074Z,98700.41
2022-10-10T01:11:06.753Z,98706.53
2022-10-10T01:12:26.832Z,98700.41
2022-10-10T01:13:46.315Z,98700.63
2022-10-10T01:15:06.858Z,98698.56
2022-10-10T01:16:23.455Z,98698.56
2022-10-10T01:17:38.171Z,98703.88
2022-10-10T01:18:56.053Z,98702.25
2022-10-10T01:20:30.995Z,98695.91
2022-10-10T01:21:49.394Z,98694.53
2022-10-10T01:23:24.316Z,98699.03
2022-10-10T01:24:56.769Z,98696.59
2022-10-10T01:26:20.327Z,98700.28
2022-10-10T01:27:41.549Z,98696.78
2022-10-10T01:29:30.091Z,98692.50
2022-10-10T01:30:35.048Z,98697.22
2022-10-10T01:31:44.545Z,98694.56
2022-10-10T01:32:53.867Z,98692.72
2022-10-10T01:34:16.777Z,98694.56
2022-10-10T01:35:50.729Z,98699.88
2022-10-10T01:37:45.504Z,98693.53
2022-10-10T01:39:05.171Z,98692.94
2022-10-10T01:40:25.300Z,98695.00
2022-10-10T01:41:56.319Z,98695.81
2022-10-10T01:43:04.003Z,98692.94
2022-10-10T01:44:05.771Z,98689.69
2022-10-10T01:45:08.264Z,98700.09
2022-10-10T01:46:18.248Z,98696.63
2022-10-10T01:47:22.532Z,98695.81
2022-10-10T01:48:30.957Z,98693.97
2022-10-10T01:49:34.927Z,98697.66
2022-10-10T01:50:55.438Z,98691.53
2022-10-10T01:52:22.541Z,98690.50
2022-10-10T01:53:35.468Z,98696.63
2022-10-10T01:55:08.884Z,98694.78
2022-10-10T01:56:33.647Z,98692.94
2022-10-10T01:57:59.528Z,98686.81
2022-10-10T01:59:46.876Z,98689.69
2022-10-10T02:01:17.691Z,98686.22
2022-10-10T02:02:58.400Z,98691.53
2022-10-10T02:04:16.311Z,98680.34
2022-10-10T02:05:36.877Z,98687.47
2022-10-10T02:06:47.269Z,98678.91
2022-10-10T02:08:09.926Z,98679.13
2022-10-10T02:09:19.871Z,98679.34
2022-10-10T02:10:33.808Z,98690.78
2022-10-10T02:11:39.318Z,98688.34
2022-10-10T02:12:41.525Z,98677.94
2022-10-10T02:13:54.892Z,98681.19
2022-10-10T02:15:08.335Z,98679.13
2022-10-10T02:16:25.221Z,98680.59
2022-10-10T02:17:27.488Z,98667.31
2022-10-10T02:18:34.708Z,98674.47
2022-10-10T02:19:42.097Z,98675.72
2022-10-10T02:20:45.763Z,98675.72
2022-10-10T02:21:51.074Z,98679.19
2022-10-10T02:22:55.768Z,98669.63
2022-10-10T02:24:03.883Z,98669.63
2022-10-10T02:25:07.109Z,98670.03
2022-10-10T02:26:13.790Z,98674.31
2022-10-10T02:27:29.936Z,98665.75
2022-10-10T02:28:51.307Z,98667.59
2022-10-10T02:29:56.370Z,98671.88
2022-10-10T02:31:05.434Z,98667.38
2022-10-10T02:32:24.196Z,98669.22
2022-10-10T02:33:38.915Z,98671.88
2022-10-10T02:34:49.444Z,98666.56
2022-10-10T02:35:53.306Z,98667.00
2022-10-10T02:37:01.569Z,98668.63
2022-10-10T02:38:07.469Z,98673.13
2022-10-10T02:39:12.323Z,98663.53
2022-10-10T02:40:22.345Z,98665.16
2022-10-10T02:41:25.137Z,98669.66
2022-10-10T02:42:29.174Z,98672.31
2022-10-10T02:43:34.505Z,98666.19
2022-10-10T02:44:39.108Z,98674.16
2022-10-10T02:45:41.764Z,98668.25
2022-10-10T02:46:43.692Z,98671.94
2022-10-10T02:47:46.138Z,98674.59
2022-10-10T02:48:47.866Z,98671.31
2022-10-10T02:49:50.323Z,98675.00
2022-10-10T02:50:52.169Z,98676.03
2022-10-10T02:51:54.038Z,98674.41
2022-10-10T02:52:57.012Z,98678.31
2022-10-10T02:53:58.806Z,98677.50
2022-10-10T02:55:00.650Z,98674.03
2022-10-10T02:56:02.346Z,98674.03
2022-10-10T02:57:04.239Z,98678.53
2022-10-10T02:58:06.191Z,98675.06
2022-10-10T02:59:07.908Z,98672.41
2022-10-10T03:00:10.736Z,98678.75
2022-10-10T03:01:12.499Z,98682.22
2022-10-10T03:02:14.337Z,98673.84
2022-10-10T03:03:16.137Z,98675.47
2022-10-10T03:04:18.166Z,98681.41
2022-10-10T03:05:19.897Z,98668.53
2022-10-10T03:06:21.603Z,98677.13
2022-10-10T03:07:23.523Z,98671.19
2022-10-10T03:08:25.291Z,98671.19
2022-10-10T03:09:27.003Z,98666.13
2022-10-10T03:10:28.757Z,98671.41
2022-10-10T03:11:31.035Z,98671.84
2022-10-10T03:12:34.264Z,98670.59
2022-10-10T03:13:36.058Z,98679.81
2022-10-10T03:14:37.786Z,98674.28
2022-10-10T03:15:39.513Z,98671.84
2022-10-10T03:16:41.287Z,98677.75
2022-10-10T03:17:43.229Z,98675.09
2022-10-10T03:18:44.961Z,98678.19
2022-10-10T03:19:46.700Z,98680.63
2022-10-10T03:20:54.996Z,98679.00
2022-10-10T03:21:56.690Z,98671.25
2022-10-10T03:22:58.402Z,98674.72
2022-10-10T03:24:00.131Z,98675.53
2022-10-10T03:25:01.848Z,98672.88
2022-10-10T03:26:04.730Z,98673.69
2022-10-10T03:27:06.524Z,98673.09
2022-10-10T03:28:08.931Z,98678.19
2022-10-10T03:29:10.706Z,98679.00
2022-10-10T03:30:13.048Z,98673.09
2022-10-10T03:31:14.814Z,98667.59
2022-10-10T03:32:16.529Z,98671.03
2022-10-10T03:33:18.235Z,98676.94
2022-10-10T03:34:19.946Z,98664.94
2022-10-10T03:35:21.656Z,98671.03
2022-10-10T03:36:23.463Z,98672.66
2022-10-10T03:37:25.331Z,98672.66
2022-10-10T03:38:27.035Z,98680.63
2022-10-10T03:39:28.830Z,98672.66
2022-10-10T03:40:31.197Z,98674.28
2022-10-10T03:41:32.925Z,98674.28
2022-10-10T03:42:34.703Z,98677.75
2022-10-10T03:43:36.473Z,98678.56
2022-10-10T03:44:38.177Z,98672.44
2022-10-10T03:45:44.040Z,98677.75
2022-10-10T03:46:45.745Z,98673.47
2022-10-10T03:47:47.589Z,98673.47
2022-10-10T03:48:49.959Z,98669.00
2022-10-10T03:49:51.686Z,98671.63
2022-10-10T03:50:53.431Z,98671.63
2022-10-10T03:51:55.483Z,98674.28
2022-10-10T03:52:57.281Z,98672.44
2022-10-10T03:53:59.008Z,98665.53
2022-10-10T03:55:00.768Z,98663.91
2022-10-10T03:56:02.492Z,98675.53
2022-10-10T03:57:04.285Z,98666.78
2022-10-10T03:58:05.984Z,98663.91
2022-10-10T03:59:07.744Z,98664.72
2022-10-10T04:00:10.400Z,98677.16
2022-10-10T04:01:12.306Z,98678.19
2022-10-10T04:02:14.055Z,98681.66
2022-10-10T04:03:15.786Z,98675.53
2022-10-10T04:04:17.584Z,98672.28
2022-10-10T04:05:19.668Z,98672.50
2022-10-10T04:06:21.855Z,98671.69
2022-10-10T04:07:23.603Z,98667.41
2022-10-10T04:08:25.715Z,98671.88
2022-10-10T04:09:27.522Z,98670.06
2022-10-10T04:10:29.297Z,98672.13
2022-10-10T04:11:31.934Z,98672.13
2022-10-10T04:12:34.135Z,98678.44
2022-10-10T04:13:35.907Z,98674.16
2022-10-10T04:14:37.610Z,98668.72
2022-10-10T04:15:39.487Z,98669.72
2022-10-10T04:16:41.214Z,98676.84
2022-10-10T04:17:42.925Z,98668.31
2022-10-10T04:18:44.784Z,98668.53
2022-10-10T04:19:46.513Z,98672.78
2022-10-10T04:20:48.294Z,98666.31
2022-10-10T04:21:50.059Z,98673.66
2022-10-10T04:22:52.414Z,98672.03
2022-10-10T04:23:54.362Z,98667.72
2022-10-10T04:24:56.099Z,98674.03
2022-10-10T04:25:57.879Z,98670.56
2022-10-10T04:26:59.598Z,98667.53
2022-10-10T04:28:01.588Z,98668.56
2022-10-10T04:29:04.262Z,98676.53
2022-10-10T04:30:07.250Z,98673.28
2022-10-10T04:31:09.150Z,98670.63
2022-10-10T04:32:10.904Z,98668.19
2022-10-10T04:33:12.772Z,98676.34
2022-10-10T04:34:15.135Z,98673.91
2022-10-10T04:35:16.915Z,98670.66
2022-10-10T04:36:18.984Z,98676.78
2022-10-10T04:37:20.747Z,98670.06
2022-10-10T04:38:22.756Z,98673.53
2022-10-10T04:39:24.604Z,98667.63
2022-10-10T04:40:27.077Z,98670.69
2022-10-10T04:41:28.933Z,98669.06
2022-10-10T04:42:30.883Z,98667.66
2022-10-10T04:43:32.604Z,98672.34
2022-10-10T04:44:34.327Z,98672.34
2022-10-10T04:45:37.658Z,98669.91
2022-10-10T04:46:39.626Z,98670.72
2022-10-10T04:47:41.344Z,98663.22
2022-10-10T04:48:43.048Z,98666.66
2022-10-10T04:49:44.895Z,98668.69
2022-10-10T04:50:56.031Z,98673.00
2022-10-10T04:51:57.736Z,98666.84
2022-10-10T04:52:59.524Z,98671.56
2022-10-10T04:54:01.356Z,98669.13
2022-10-10T04:55:03.534Z,98668.31
2022-10-10T04:56:05.525Z,98668.31
2022-10-10T04:57:07.261Z,98676.47
2022-10-10T04:58:08.995Z,98673.03
2022-10-10T04:59:10.737Z,98672.41
2022-10-10T05:00:13.086Z,98679.34
2022-10-10T05:01:14.854Z,98675.06
2022-10-10T05:02:16.691Z,98677.94
2022-10-10T05:03:18.701Z,98669.16
2022-10-10T05:04:20.593Z,98671.00
2022-10-10T05:05:22.347Z,98667.34
2022-10-10T05:06:24.102Z,98677.13
2022-10-10T05:07:25.928Z,98674.47
2022-10-10T05:08:27.730Z,98672.63
2022-10-10T05:09:29.515Z,98674.47
2022-10-10T05:10:35.650Z,98678.97
2022-10-10T05:11:37.370Z,98672.81
2022-10-10T05:12:39.126Z,98673.66
2022-10-10T05:13:40.890Z,98672.00
2022-10-10T05:14:47.288Z,98668.75
2022-10-10T05:15:52.961Z,98663.47
2022-10-10T05:16:54.720Z,98670.00
2022-10-10T05:17:56.460Z,98665.28
2022-10-10T05:18:58.243Z,98663.66
2022-10-10T05:19:59.990Z,98669.78
2022-10-10T05:21:03.864Z,98665.50
2022-10-10T05:22:06.055Z,98658.00
2022-10-10T05:23:07.795Z,98666.53
2022-10-10T05:24:09.526Z,98664.91
2022-10-10T05:25:11.913Z,98662.25
2022-10-10T05:26:14.122Z,98658.00
2022-10-10T05:27:15.855Z,98664.31
2022-10-10T05:28:18.328Z,98657.41
2022-10-10T05:29:20.096Z,98665.13
2022-10-10T05:30:21.935Z,98660.03
2022-10-10T05:31:23.713Z,98667.19
2022-10-10T05:32:25.525Z,98666.34
2022-10-10T05:33:27.262Z,98665.53
2022-10-10T05:34:29.054Z,98661.47
2022-10-10T05:35:31.179Z,98667.38
2022-10-10T05:36:32.904Z,98672.06
2022-10-10T05:37:35.361Z,98678.19
2022-10-10T05:38:39.016Z,98673.09
2022-10-10T05:39:40.909Z,98669.41
2022-10-10T05:40:42.908Z,98670.44
2022-10-10T05:41:44.642Z,98680.22
2022-10-10T05:42:46.414Z,98676.97
2022-10-10T05:43:48.209Z,98673.09
2022-10-10T05:44:49.957Z,98676.56
2022-10-10T05:45:51.762Z,98679.41
2022-10-10T05:46:53.513Z,98682.06
2022-10-10T05:47:55.235Z,98680.66
2022-10-10T05:48:57.393Z,98674.53
2022-10-10T05:49:59.081Z,98681.88
2022-10-10T05:51:01.735Z,98679.25
2022-10-10T05:52:03.541Z,98683.91
2022-10-10T05:53:06.742Z,98690.44
2022-10-10T05:54:08.743Z,98690.44
2022-10-10T05:55:10.463Z,98689.63
2022-10-10T05:56:12.229Z,98683.72
2022-10-10T05:57:16.364Z,98691.69
2022-10-10T05:58:18.578Z,98693.94
2022-10-10T05:59:20.325Z,98693.50
2022-10-10T06:00:22.186Z,98694.94
2022-10-10T06:01:23.931Z,98694.13
2022-10-10T06:02:25.696Z,98697.78
2022-10-10T06:03:27.457Z,98700.66
2022-10-10T06:04:29.184Z,98704.31
2022-10-10T06:05:30.887Z,98712.69
2022-10-10T06:06:33.067Z,98711.06
2022-10-10T06:07:52.307Z,98705.78
2022-10-10T06:08:57.043Z,98711.28
2022-10-10T06:09:58.732Z,98715.75
2022-10-10T06:11:08.191Z,98717.56
2022-10-10T06:12:09.956Z,98716.97
2022-10-10T06:13:20.287Z,98719.63
2022-10-10T06:14:24.976Z,98715.34
2022-10-10T06:15:26.809Z,98708.84
2022-10-10T06:16:28.648Z,98701.72
2022-10-10T06:17:30.385Z,98701.72
2022-10-10T06:18:32.109Z,98698.25
2022-10-10T06:19:33.892Z,98703.53
2022-10-10T06:20:40.667Z,98706.78
2022-10-10T06:21:42.499Z,98703.97
2022-10-10T06:22:44.242Z,98698.66
2022-10-10T06:23:54.306Z,98700.28
2022-10-10T06:24:56.053Z,98709.25
2022-10-10T06:25:57.818Z,98705.97
2022-10-10T06:26:59.632Z,98705.97
2022-10-10T06:28:01.940Z,98705.97
2022-10-10T06:29:03.782Z,98708.03
2022-10-10T06:30:06.413Z,98704.34
2022-10-10T06:31:11.385Z,98705.16
2022-10-10T06:32:13.153Z,98702.72
2022-10-10T06:33:15.994Z,98702.53
2022-10-10T06:34:17.812Z,98705.16
2022-10-10T06:35:20.042Z,98709.66
2022-10-10T06:36:21.724Z,98722.69
2022-10-10T06:37:23.429Z,98716.56
2022-10-10T06:38:27.466Z,98714.56
2022-10-10T06:39:29.425Z,98710.88
2022-10-10T06:40:31.121Z,98708.25
2022-10-10T06:41:32.851Z,98711.50
2022-10-10T06:42:34.575Z,98714.94
2022-10-10T06:43:36.815Z,98710.47
2022-10-10T06:44:38.578Z,98716.16
2022-10-10T06:45:44.962Z,98707.19
2022-10-10T06:46:46.720Z,98708.00
2022-10-10T06:47:48.430Z,98712.09
2022-10-10T06:48:50.269Z,98715.13
2022-10-10T06:49:52.000Z,98719.41
2022-10-10T06:51:06.483Z,98724.06
2022-10-10T06:52:08.402Z,98729.19
2022-10-10T06:53:10.191Z,98729.56
2022-10-10T06:54:12.060Z,98733.03
2022-10-10T06:55:13.865Z,98728.94
2022-10-10T06:56:24.908Z,98732.22
2022-10-10T06:57:29.106Z,98730.16
2022-10-10T06:58:32.100Z,98732.41
2022-10-10T06:59:34.346Z,98733.81
2022-10-10T07:00:36.049Z,98733.81
2022-10-10T07:01:37.912Z,98733.59
2022-10-10T07:02:40.886Z,98727.28
2022-10-10T07:03:42.673Z,98737.47
2022-10-10T07:04:44.454Z,98731.16
2022-10-10T07:05:54.714Z,98733.16
2022-10-10T07:06:56.683Z,98731.53
2022-10-10T07:07:58.398Z,98738.06
2022-10-10T07:09:00.138Z,98745.00
2022-10-10T07:10:02.259Z,98745.00
2022-10-10T07:11:04.976Z,98744.34
2022-10-10T07:12:06.750Z,98732.94
2022-10-10T07:13:08.609Z,98732.72
2022-10-10T07:14:10.305Z,98737.00
2022-10-10T07:15:12.678Z,98731.31
2022-10-10T07:16:14.403Z,98731.91
2022-10-10T07:17:16.136Z,98735.16
2022-10-10T07:18:18.954Z,98742.09
2022-10-10T07:19:21.571Z,98740.03
2022-10-10T07:20:23.302Z,98740.63
2022-10-10T07:21:25.016Z,98738.59
2022-10-10T07:22:26.812Z,98739.19
2022-10-10T07:23:29.429Z,98737.16
2022-10-10T07:24:31.367Z,98737.38
2022-10-10T07:25:33.453Z,98740.63
2022-10-10T07:26:39.231Z,98739.59
2022-10-10T07:27:40.943Z,98742.03
2022-10-10T07:28:42.731Z,98741.63
2022-10-10T07:29:44.579Z,98752.81
2022-10-10T07:30:46.868Z,98747.53
2022-10-10T07:31:48.653Z,98747.31
2022-10-10T07:32:52.936Z,98748.72
2022-10-10T07:33:55.003Z,98747.09
2022-10-10T07:34:58.353Z,98753.59
2022-10-10T07:36:00.222Z,98755.22
2022-10-10T07:37:01.963Z,98755.22
2022-10-10T07:38:03.698Z,98749.53
2022-10-10T07:39:05.681Z,98759.94
2022-10-10T07:40:09.174Z,98757.06
2022-10-10T07:41:13.428Z,98755.00
2022-10-10T07:42:15.302Z,98746.84
2022-10-10T07:43:18.388Z,98752.94
2022-10-10T07:44:20.780Z,98750.94
2022-10-10T07:45:22.531Z,98754.19
2022-10-10T07:46:24.437Z,98757.03
2022-10-10T07:47:26.175Z,98748.88
2022-10-10T07:48:28.146Z,98753.75
2022-10-10T07:49:29.860Z,98757.00
2022-10-10T07:50:31.580Z,98759.44
2022-10-10T07:51:33.417Z,98755.97
2022-10-10T07:52:35.759Z,98765.97
2022-10-10T07:53:37.699Z,98756.97
2022-10-10T07:54:39.420Z,98761.25
2022-10-10T07:55:44.440Z,98757.34
2022-10-10T07:56:46.183Z,98766.94
2022-10-10T07:57:52.531Z,98763.47
2022-10-10T07:58:55.149Z,98769.19
2022-10-10T07:59:56.902Z,98772.81
2022-10-10T08:01:07.475Z,98762.56
2022-10-10T08:02:10.218Z,98765.22
2022-10-10T08:03:12.480Z,98766.66
2022-10-10T08:04:14.543Z,98767.03
2022-10-10T08:05:16.346Z,98767.41
2022-10-10T08:06:18.640Z,98770.25
2022-10-10T08:07:20.775Z,98767.38
2022-10-10T08:08:22.540Z,98768.56
2022-10-10T08:09:24.666Z,98769.78
2022-10-10T08:10:28.583Z,98761.97
2022-10-10T08:11:30.306Z,98770.53
2022-10-10T08:12:32.074Z,98771.53
2022-10-10T08:13:35.030Z,98774.53
2022-10-10T08:14:37.019Z,98769.59
2022-10-10T08:15:42.159Z,98776.72
2022-10-10T08:16:43.872Z,98769.16
2022-10-10T08:17:45.682Z,98766.09
2022-10-10T08:18:47.545Z,98768.53
2022-10-10T08:19:49.315Z,98768.28
2022-10-10T08:21:08.657Z,98770.06
2022-10-10T08:22:10.475Z,98764.56
2022-10-10T08:23:12.560Z,98767.59
2022-10-10T08:24:17.293Z,98764.25
2022-10-10T08:25:19.037Z,98772.22
2022-10-10T08:26:20.856Z,98767.53
2022-10-10T08:27:22.898Z,98767.31
2022-10-10T08:28:24.673Z,98773.81
2022-10-10T08:29:26.523Z,98772.53
2022-10-10T08:30:28.252Z,98763.34
2022-10-10T08:31:30.815Z,98771.31
2022-10-10T08:32:32.556Z,98777.44
2022-10-10T08:33:35.145Z,98781.28
2022-10-10T08:34:36.866Z,98770.19
2022-10-10T08:35:39.969Z,98776.72
2022-10-10T08:36:41.826Z,98777.31
2022-10-10T08:37:43.655Z,98779.50
2022-10-10T08:38:46.568Z,98770.28
2022-10-10T08:39:48.279Z,98774.97
2022-10-10T08:40:56.553Z,98769.78
2022-10-10T08:42:03.252Z,98771.78
2022-10-10T08:43:09.190Z,98777.25
2022-10-10T08:44:55.178Z,98779.38
2022-10-10T08:46:00.117Z,98773.38
2022-10-10T08:47:20.787Z,98772.53
2022-10-10T08:48:29.965Z,98776.75
2022-10-10T08:49:58.948Z,98783.00
2022-10-10T08:51:10.781Z,98775.41
2022-10-10T08:52:41.341Z,98766.75
2022-10-10T08:53:49.501Z,98779.38
2022-10-10T08:54:58.187Z,98777.91
2022-10-10T08:56:02.364Z,98776.97
2022-10-10T08:57:21.177Z,98768.34
2022-10-10T08:58:38.960Z,98771.13
2022-10-10T08:59:43.217Z,98770.22
2022-10-10T09:01:15.236Z,98773.59
2022-10-10T09:02:29.669Z,98777.91
2022-10-10T09:03:49.173Z,98781.03
2022-10-10T09:04:50.948Z,98787.78
2022-10-10T09:06:30.764Z,98785.81
2022-10-10T09:08:21.271Z,98773.25
2022-10-10T09:09:51.653Z,98777.63
2022-10-10T09:11:13.610Z,98775.56
2022-10-10T09:12:43.441Z,98777.06
2022-10-10T09:14:08.348Z,98778.25
2022-10-10T09:15:17.099Z,98774.91
2022-10-10T09:16:49.272Z,98776.88
2022-10-10T09:18:15.261Z,98771.44
2022-10-10T09:19:44.663Z,98769.69
2022-10-10T09:21:20.352Z,98771.66
2022-10-10T09:22:34.325Z,98772.81
2022-10-10T09:24:00.025Z,98774.31
2022-10-10T09:25:16.086Z,98770.97
2022-10-10T09:26:25.737Z,98776.41
2022-10-10T09:27:40.584Z,98772.59
2022-10-10T09:29:19.925Z,98778.41
2022-10-10T09:30:21.990Z,98776.66
2022-10-10T09:31:32.846Z,98778.38
2022-10-10T09:33:10.869Z,98769.44
2022-10-10T09:34:32.245Z,98770.44
2022-10-10T09:35:39.014Z,98775.91
2022-10-10T09:36:41.664Z,98769.03
2022-10-10T09:37:48.645Z,98776.56
2022-10-10T09:38:57.331Z,98766.00
2022-10-10T09:40:14.536Z,98772.81
2022-10-10T09:41:47.606Z,98760.00
2022-10-10T09:42:49.648Z,98763.09
2022-10-10T09:44:04.022Z,98767.94
2022-10-10T09:45:28.413Z,98769.97
2022-10-10T09:46:30.520Z,98774.56
2022-10-10T09:47:33.532Z,98763.81
2022-10-10T09:48:40.356Z,98771.28
2022-10-10T09:49:44.320Z,98768.78
2022-10-10T09:50:46.116Z,98767.41
2022-10-10T09:51:49.492Z,98769.75
2022-10-10T09:52:52.996Z,98769.91
2022-10-10T09:53:54.931Z,98768.72
2022-10-10T09:55:05.415Z,98766.69
2022-10-10T09:56:14.600Z,98768.69
2022-10-10T09:57:23.353Z,98767.00
2022-10-10T09:58:44.405Z,98774.00
2022-10-10T09:59:46.834Z,98766.31
2022-10-10T10:00:48.746Z,98766.00
2022-10-10T10:02:04.062Z,98767.88
2022-10-10T10:03:15.027Z,98767.06
2022-10-10T10:04:28.708Z,98773.72
2022-10-10T10:05:31.314Z,98765.34
2022-10-10T10:06:33.667Z,98768.91
2022-10-10T10:07:36.352Z,98763.03
2022-10-10T10:08:38.377Z,98757.66
2022-10-10T10:09:40.139Z,98760.94
2022-10-10T10:10:41.946Z,98761.22
2022-10-10T10:11:47.077Z,98771.16
2022-10-10T10:12:49.032Z,98766.28
2022-10-10T10:13:56.567Z,98768.53
2022-10-10T10:15:04.675Z,98757.97
2022-10-10T10:16:14.927Z,98759.16
2022-10-10T10:17:23.095Z,98762.66
2022-10-10T10:18:28.774Z,98752.31
2022-10-10T10:19:44.230Z,98758.84
2022-10-10T10:21:09.924Z,98756.88
2022-10-10T10:22:37.723Z,98755.91
2022-10-10T10:23:44.508Z,98759.78
2022-10-10T10:24:46.227Z,98760.56
2022-10-10T10:26:02.582Z,98752.22
2022-10-10T10:27:24.114Z,98765.03
2022-10-10T10:28:26.585Z,98765.00
2022-10-10T10:29:28.380Z,98758.81
2022-10-10T10:30:34.203Z,98760.25
2022-10-10T10:31:57.799Z,98760.22
2022-10-10T10:33:40.746Z,98761.09
2022-10-10T10:35:09.492Z,98756.25
2022-10-10T10:36:42.631Z,98753.44
2022-10-10T10:38:05.463Z,98754.28
2022-10-10T10:39:36.457Z,98756.91
2022-10-10T10:40:47.769Z,98754.97
2022-10-10T10:42:48.959Z,98756.03
2022-10-10T10:44:44.937Z,98746.84
2022-10-10T10:46:21.115Z,98760.59
2022-10-10T10:47:22.816Z,98755.13
2022-10-10T10:48:39.621Z,98750.41
2022-10-10T10:50:20.544Z,98751.97
2022-10-10T10:51:56.153Z,98752.50
2022-10-10T10:53:09.837Z,98751.31
2022-10-10T10:54:26.841Z,98751.47
2022-10-10T10:56:02.647Z,98751.25
2022-10-10T11:01:38.383Z,98738.13
2022-10-10T11:02:57.664Z,98738.13
2022-10-10T11:05:22.860Z,98742.03
2022-10-10T11:06:00.860Z,98744.19
2022-10-10T11:07:21.522Z,98739.00
2022-10-10T11:08:57.655Z,98737.22
2022-10-10T11:10:17.780Z,98742.34
2022-10-10T11:12:04.421Z,98738.81
2022-10-10T11:13:33.055Z,98738.38
2022-10-10T11:15:23.615Z,98739.88
2022-10-10T11:16:56.329Z,98737.81
2022-10-10T11:18:18.856Z,98737.47
2022-10-10T11:19:38.977Z,98736.00
2022-10-10T11:21:20.803Z,98736.53
2022-10-10T11:22:48.140Z,98740.75
2022-10-10T11:24:00.654Z,98739.16
2022-10-10T11:25:26.576Z,98734.06
2022-10-10T11:26:42.251Z,98738.59
2022-10-10T11:27:57.636Z,98729.66
2022-10-10T11:29:05.880Z,98744.16
2022-10-10T11:30:18.148Z,98740.97
2022-10-10T11:31:33.921Z,98739.63
2022-10-10T11:33:10.163Z,98738.13
2022-10-10T11:34:25.667Z,98736.19
2022-10-10T11:35:44.984Z,98734.75
2022-10-10T11:36:48.695Z,98734.44
2022-10-10T11:38:01.553Z,98736.91
2022-10-10T11:39:21.796Z,98735.88
2022-10-10T11:40:51.321Z,98737.69
2022-10-10T11:42:25.148Z,98744.44
2022-10-10T11:43:57.205Z,98739.63
2022-10-10T11:45:15.945Z,98737.00
2022-10-10T11:47:13.785Z,98733.13
2022-10-10T11:48:41.805Z,98733.50
2022-10-10T11:50:12.693Z,98738.47
2022-10-10T11:51:42.739Z,98735.34
2022-10-10T11:53:21.163Z,98730.38
2022-10-10T11:55:15.757Z,98733.00
2022-10-10T11:56:40.967Z,98727.94
2022-10-10T11:57:53.346Z,98728.00
2022-10-10T11:59:07.413Z,98729.31
2022-10-10T12:00:18.195Z,98728.50
2022-10-10T12:01:33.705Z,98729.34
2022-10-10T12:02:42.838Z,98724.63
2022-10-10T12:03:44.559Z,98720.00
2022-10-10T12:04:47.014Z,98723.63
2022-10-10T12:06:00.478Z,98718.19
2022-10-10T12:07:21.139Z,98722.78
2022-10-10T12:08:42.248Z,98718.97
2022-10-10T12:09:52.208Z,98723.75
2022-10-10T12:11:00.585Z,98716.38
2022-10-10T12:12:15.007Z,98720.97
2022-10-10T12:13:37.013Z,98720.69
2022-10-10T12:14:48.045Z,98723.25
2022-10-10T12:15:54.378Z,98712.88
2022-10-10T12:16:57.350Z,98715.72
2022-10-10T12:17:59.692Z,98719.63
2022-10-10T12:19:22.213Z,98722.47
2022-10-10T12:20:26.972Z,98719.22
2022-10-10T12:21:31.463Z,98717.91
2022-10-10T12:22:33.223Z,98725.00
2022-10-10T12:23:35.977Z,98718.56
2022-10-10T12:25:07.118Z,98718.13
2022-10-10T12:26:22.377Z,98714.69
2022-10-10T12:27:49.106Z,98712.31
2022-10-10T12:29:09.700Z,98708.28
2022-10-10T12:30:24.977Z,98708.56
2022-10-10T12:31:38.696Z,98705.66
2022-10-10T12:32:42.336Z,98708.06
2022-10-10T12:33:44.820Z,98710.25
2022-10-10T12:34:49.349Z,98710.84
2022-10-10T12:35:51.241Z,98705.72
2022-10-10T12:37:11.064Z,98709.00
2022-10-10T12:38:28.395Z,98711.19
2022-10-10T12:39:36.346Z,98705.78
2022-10-10T12:40:57.170Z,98706.66
2022-10-10T12:41:58.892Z,98702.84
2022-10-10T12:43:23.308Z,98703.19
2022-10-10T12:44:35.385Z,98702.41
2022-10-10T12:45:36.992Z,98698.59
2022-10-10T12:46:38.872Z,98698.09
2022-10-10T12:48:04.537Z,98702.69
2022-10-10T12:49:23.545Z,98703.28
2022-10-10T12:50:36.342Z,98698.97
2022-10-10T12:51:39.042Z,98698.13
2022-10-10T12:52:53.080Z,98690.31
2022-10-10T12:53:59.508Z,98697.31
2022-10-10T12:55:23.520Z,98686.59
2022-10-10T12:56:44.611Z,98691.50
2022-10-10T12:57:49.218Z,98696.31
2022-10-10T12:58:50.982Z,98695.78
2022-10-10T12:59:53.223Z,98697.91
2022-10-10T13:01:22.144Z,98695.00
2022-10-10T13:02:28.261Z,98700.41
2022-10-10T13:03:46.426Z,98700.69
2022-10-10T13:04:53.193Z,98698.78
2022-10-10T13:06:02.465Z,98692.06
2022-10-10T13:07:05.064Z,98701.47
2022-10-10T13:08:15.438Z,98693.69
2022-10-10T13:09:27.361Z,98699.34
2022-10-10T13:10:33.085Z,98698.28
2022-10-10T13:11:51.326Z,98700.72
2022-10-10T13:13:19.990Z,98693.22
2022-10-10T13:14:23.088Z,98701.00
2022-10-10T13:15:24.884Z,98698.03
2022-10-10T13:16:33.789Z,98702.63
2022-10-10T13:17:41.717Z,98700.22
2022-10-10T13:18:59.330Z,98699.69
2022-10-10T13:20:02.711Z,98698.81
2022-10-10T13:21:09.112Z,98708.03
2022-10-10T13:22:11.097Z,98700.72
2022-10-10T13:23:15.257Z,98701.53
2022-10-10T13:24:24.429Z,98693.72
2022-10-10T13:25:27.394Z,98699.91
2022-10-10T13:26:39.911Z,98698.59
2022-10-10T13:27:43.258Z,98692.41